Terminal Aerodrome Forecast
Issued by NWS Jacksonville, FL

Home | Current Version | Previous Version | Text Only | Print | Product List | Glossary On
Versions: 1 2 3 4 5 6 7 8 9 10 11 12 13
000
FTUS42 KJAX 221215 RRA
TAFGNV
TAF
KGNV 221215Z 2212/2312 06004KT P6SM FEW025 FEW150 FEW250
     FM221500 06007KT P6SM SCT030 BKN070
     FM221800 06010G15KT P6SM VCSH SCT030 BKN040 BKN070=

USA.gov is the U.S. government's official web portal to all federal, state and local government web resources and services.